Time;durP1;ratioP1;P1;durP2;ratioP2;P2;SDS_P1;SDS_P2;PMS_P1;PMS_P2;Temp;Humidity;BMP_temperature;BMP_pressure;BME280_temperature;BME280_humidity;BME280_pressure;Samples;Min_cycle;Max_cycle;Signal;HPM_P1;HPM_P2
2022/01/13 00:00:49;;;;;;;27.05;12.75;;;1.70;86.70;;;;;;6234028;28;20122;-81
2022/01/13 00:03:50;;;;;;;31.45;13.85;;;1.80;86.70;;;;;;6231701;28;20050;-80
2022/01/13 00:06:52;;;;;;;24.92;11.85;;;1.90;86.30;;;;;;6235357;28;20106;-80
2022/01/13 00:09:55;;;;;;;29.55;13.07;;;2.00;86.00;;;;;;6230710;28;20046;-81
2022/01/13 00:13:02;;;;;;;25.65;11.50;;;2.10;85.90;;;;;;6232980;28;20046;-81
2022/01/13 00:16:25;;;;;;;28.45;13.30;;;2.20;85.70;;;;;;6231456;28;20050;-81
2022/01/13 00:19:35;;;;;;;25.70;11.98;;;2.30;85.50;;;;;;6231257;28;20433;-82
2022/01/13 00:22:49;;;;;;;27.25;12.35;;;2.30;85.30;;;;;;6230723;28;20069;-81
2022/01/13 00:25:56;;;;;;;29.65;11.90;;;2.30;85.10;;;;;;6230423;28;20070;-81
2022/01/13 00:29:01;;;;;;;26.50;13.30;;;2.30;85.10;;;;;;6228147;28;20120;-81
2022/01/13 00:32:03;;;;;;;24.75;12.00;;;2.30;85.20;;;;;;6229111;28;20140;-81
2022/01/13 00:35:06;;;;;;;20.05;10.05;;;2.30;85.20;;;;;;6229748;28;20056;-82
2022/01/13 00:38:08;;;;;;;28.60;13.95;;;2.30;85.10;;;;;;6230129;28;20053;-80
2022/01/13 00:41:11;;;;;;;26.38;13.30;;;2.20;85.10;;;;;;6245108;22;20116;-83
2022/01/13 00:44:19;;;;;;;24.30;12.13;;;2.20;85.00;;;;;;6231751;28;20133;-82
2022/01/13 00:47:20;;;;;;;;;;;2.20;85.20;;;;;;6230494;28;20057;-81
2022/01/13 00:50:22;;;;;;;24.17;11.93;;;2.20;85.40;;;;;;6229115;28;20323;-83
2022/01/13 00:53:24;;;;;;;28.80;13.05;;;2.30;85.00;;;;;;6230196;28;20049;-82
2022/01/13 00:56:27;;;;;;;21.60;10.32;;;2.20;85.00;;;;;;6229355;28;20388;-82
2022/01/13 00:59:29;;;;;;;28.55;12.90;;;2.20;85.00;;;;;;6230118;28;20049;-82
2022/01/13 01:02:31;;;;;;;22.10;11.93;;;2.30;85.00;;;;;;6229626;28;20050;-80
2022/01/13 01:05:34;;;;;;;24.08;12.95;;;2.30;84.80;;;;;;6228989;28;20060;-82
2022/01/13 01:08:35;;;;;;;26.75;12.65;;;2.40;84.30;;;;;;6228825;28;20475;-81
2022/01/13 01:11:39;;;;;;;22.15;11.93;;;2.40;84.10;;;;;;6229965;28;20109;-81
2022/01/13 01:14:47;;;;;;;22.10;10.25;;;2.50;83.70;;;;;;6228542;28;20049;-82
2022/01/13 01:17:55;;;;;;;24.80;12.20;;;2.50;83.40;;;;;;6228683;28;20053;-82
2022/01/13 01:21:30;;;;;;;25.23;10.07;;;2.40;83.40;;;;;;6241283;28;20053;-82
2022/01/13 01:27:51;;;;;;;20.33;11.52;;;2.30;83.40;;;;;;6231651;28;20049;-82
2022/01/13 01:30:55;;;;;;;20.88;11.55;;;2.20;83.80;;;;;;6230900;28;20050;-82
2022/01/13 01:34:12;;;;;;;21.98;11.13;;;2.20;84.10;;;;;;6230601;28;20046;-81
2022/01/13 01:37:16;;;;;;;23.67;11.57;;;2.10;84.20;;;;;;6230970;28;20065;-83
2022/01/13 01:40:19;;;;;;;25.42;11.00;;;2.10;84.40;;;;;;6230159;28;20736;-83
2022/01/13 01:43:22;;;;;;;21.25;7.60;;;2.00;84.60;;;;;;6230240;28;20052;-82
2022/01/13 01:46:26;;;;;;;24.88;11.77;;;1.90;85.10;;;;;;6229605;28;20073;-82
2022/01/13 01:49:31;;;;;;;26.92;12.55;;;1.80;85.40;;;;;;6226901;28;20419;-82
2022/01/13 01:52:33;;;;;;;24.45;12.20;;;1.80;85.80;;;;;;6229857;28;20042;-82
2022/01/13 01:55:36;;;;;;;21.95;10.30;;;1.80;86.10;;;;;;6229798;28;20128;-82
2022/01/13 01:58:39;;;;;;;34.25;13.93;;;1.70;86.10;;;;;;6232163;28;20454;-80
2022/01/13 02:01:42;;;;;;;24.48;12.35;;;1.70;86.20;;;;;;6229128;28;20121;-80
2022/01/13 02:04:44;;;;;;;22.05;10.80;;;1.70;86.30;;;;;;6225636;28;20139;-81
2022/01/13 02:07:46;;;;;;;23.80;10.32;;;1.70;86.50;;;;;;6228558;28;20050;-82
2022/01/13 02:10:49;;;;;;;24.17;12.32;;;1.70;86.50;;;;;;6227551;28;20416;-80
2022/01/13 02:13:54;;;;;;;20.92;10.68;;;1.60;86.60;;;;;;6228247;28;20045;-82
2022/01/13 02:16:57;;;;;;;22.08;10.93;;;1.60;86.80;;;;;;6228942;28;20079;-81
2022/01/13 02:19:58;;;;;;;23.73;12.40;;;1.60;86.90;;;;;;6228771;28;20523;-81
2022/01/13 02:23:02;;;;;;;25.80;13.02;;;1.50;87.00;;;;;;6228438;28;20109;-81
2022/01/13 02:26:05;;;;;;;27.58;12.80;;;1.50;87.20;;;;;;6228256;28;20049;-84
2022/01/13 02:29:07;;;;;;;26.30;12.57;;;1.50;87.10;;;;;;6228355;28;20576;-84
2022/01/13 02:32:09;;;;;;;22.33;10.73;;;1.50;87.20;;;;;;6229985;28;20109;-83
2022/01/13 02:35:11;;;;;;;23.70;11.95;;;1.50;87.30;;;;;;6229468;28;20093;-82
2022/01/13 02:38:14;;;;;;;24.27;11.60;;;1.50;87.30;;;;;;6229174;28;20085;-83
2022/01/13 02:41:16;;;;;;;21.70;11.95;;;1.50;87.00;;;;;;6229400;28;20471;-84
2022/01/13 02:44:21;;;;;;;25.83;12.93;;;1.50;87.10;;;;;;6228698;28;20073;-82
2022/01/13 02:47:36;;;;;;;28.15;13.95;;;1.40;86.80;;;;;;6230269;28;20547;-84
2022/01/13 02:50:39;;;;;;;26.45;13.32;;;1.40;86.80;;;;;;6229262;28;20041;-83
2022/01/13 02:53:42;;;;;;;24.48;11.93;;;1.40;87.00;;;;;;6229418;28;20114;-83
2022/01/13 02:56:45;;;;;;;24.58;13.63;;;1.40;87.90;;;;;;6227471;28;20463;-82
2022/01/13 02:59:47;;;;;;;30.95;14.70;;;1.40;87.00;;;;;;6227765;28;20045;-81
2022/01/13 03:02:48;;;;;;;27.20;12.52;;;1.40;87.70;;;;;;6223926;28;20517;-81
2022/01/13 03:05:50;;;;;;;30.52;15.40;;;1.30;87.60;;;;;;6223882;28;20054;-82
2022/01/13 03:08:53;;;;;;;33.67;13.52;;;1.30;87.60;;;;;;6224802;28;20046;-81
2022/01/13 03:11:55;;;;;;;29.35;13.05;;;1.20;87.40;;;;;;6226030;28;20046;-82
2022/01/13 03:14:57;;;;;;;32.55;13.60;;;1.20;87.60;;;;;;6232210;28;20060;-80
2022/01/13 03:17:59;;;;;;;35.55;15.32;;;1.20;87.80;;;;;;6251380;28;20076;-80
2022/01/13 03:21:01;;;;;;;26.52;12.50;;;1.20;88.00;;;;;;6244304;28;20129;-82
2022/01/13 03:24:07;;;;;;;25.95;13.02;;;1.20;87.90;;;;;;6234100;28;20046;-81
2022/01/13 03:27:17;;;;;;;25.50;12.90;;;1.10;87.40;;;;;;6233336;28;20128;-81
2022/01/13 03:30:19;;;;;;;24.88;13.13;;;1.10;87.60;;;;;;6233843;28;20046;-82
2022/01/13 03:33:22;;;;;;;32.47;12.75;;;1.10;87.80;;;;;;6232192;28;20046;-80
2022/01/13 03:36:24;;;;;;;31.35;15.00;;;1.00;87.80;;;;;;6232554;28;20127;-82
2022/01/13 03:39:28;;;;;;;29.52;13.95;;;1.00;88.10;;;;;;6232981;28;20185;-82
2022/01/13 03:42:30;;;;;;;34.45;14.75;;;1.00;87.90;;;;;;6231604;28;20050;-80
2022/01/13 03:45:33;;;;;;;25.73;13.25;;;0.90;88.00;;;;;;6231535;28;20115;-80
2022/01/13 03:48:35;;;;;;;26.17;14.40;;;0.90;88.20;;;;;;6224897;28;20052;-82
2022/01/13 03:52:33;;;;;;;25.52;14.43;;;0.80;88.40;;;;;;6223805;28;20085;-80
2022/01/13 03:56:41;;;;;;;28.50;14.23;;;0.80;88.40;;;;;;6230472;28;20054;-81
2022/01/13 04:00:45;;;;;;;36.20;14.50;;;0.80;88.60;;;;;;6231290;28;20077;-80
2022/01/13 04:03:47;;;;;;;32.90;15.98;;;0.80;88.60;;;;;;6229813;28;20057;-81
2022/01/13 04:06:48;;;;;;;33.90;17.55;;;0.70;88.90;;;;;;6229914;28;20116;-80
2022/01/13 04:10:23;;;;;;;30.83;15.82;;;0.70;89.30;;;;;;6229648;28;20056;-81
2022/01/13 04:13:45;;;;;;;36.67;15.00;;;0.80;89.90;;;;;;6229644;28;20483;-80
2022/01/13 04:16:46;;;;;;;28.92;13.13;;;0.70;90.00;;;;;;6228974;28;20075;-79
2022/01/13 04:19:49;;;;;;;30.33;13.32;;;0.70;90.20;;;;;;6229871;28;20052;-84
2022/01/13 04:22:51;;;;;;;27.75;10.88;;;0.80;90.20;;;;;;6228781;28;20050;-81
2022/01/13 04:25:53;;;;;;;25.58;12.68;;;0.80;90.20;;;;;;6229047;28;20526;-80
2022/01/13 04:29:04;;;;;;;27.67;13.50;;;0.80;90.30;;;;;;6229551;28;20138;-80
2022/01/13 04:32:07;;;;;;;32.65;14.82;;;0.80;90.20;;;;;;6230420;28;20411;-83
2022/01/13 04:35:10;;;;;;;32.10;15.65;;;0.80;90.30;;;;;;6228704;28;20559;-83
2022/01/13 04:38:12;;;;;;;33.95;14.95;;;0.80;90.10;;;;;;6228948;28;20042;-81
2022/01/13 04:41:22;;;;;;;27.90;13.90;;;0.80;90.10;;;;;;6228115;28;20566;-81
2022/01/13 04:44:26;;;;;;;32.42;13.05;;;0.80;90.10;;;;;;6227934;28;20521;-81
2022/01/13 04:47:28;;;;;;;35.10;16.92;;;0.80;90.30;;;;;;6228526;28;20517;-81
2022/01/13 04:50:30;;;;;;;29.55;13.20;;;0.80;90.20;;;;;;6229392;28;20069;-81
2022/01/13 04:53:32;;;;;;;29.90;14.10;;;0.80;90.30;;;;;;6229127;28;20060;-82
2022/01/13 04:56:41;;;;;;;36.30;15.30;;;0.80;90.20;;;;;;6228034;28;20490;-82
2022/01/13 04:59:44;;;;;;;31.90;15.35;;;0.80;90.30;;;;;;6228996;28;20045;-81
2022/01/13 05:02:46;;;;;;;31.05;15.45;;;0.80;90.20;;;;;;6228437;28;20050;-83
2022/01/13 05:05:48;;;;;;;36.13;15.40;;;0.80;90.20;;;;;;6229359;28;20600;-83
2022/01/13 05:08:51;;;;;;;27.60;13.98;;;0.80;90.00;;;;;;6233918;28;20041;-82
2022/01/13 05:11:52;;;;;;;27.10;14.00;;;0.70;89.80;;;;;;6230102;28;20149;-81
2022/01/13 05:15:01;;;;;;;32.67;14.82;;;0.70;89.80;;;;;;6228133;28;20060;-83
2022/01/13 05:18:15;;;;;;;31.13;14.85;;;0.70;89.70;;;;;;6229002;28;20053;-80
2022/01/13 05:21:23;;;;;;;36.53;14.30;;;0.70;89.70;;;;;;6237578;28;20042;-82
2022/01/13 05:24:25;;;;;;;31.02;14.65;;;0.60;89.70;;;;;;6228347;28;20056;-80
2022/01/13 05:27:27;;;;;;;30.48;15.27;;;0.60;89.80;;;;;;6229283;28;20057;-81
2022/01/13 05:30:33;;;;;;;29.95;13.98;;;0.60;90.30;;;;;;6234854;28;20037;-82
2022/01/13 05:33:35;;;;;;;34.40;15.07;;;0.60;90.40;;;;;;6233435;28;20085;-82
2022/01/13 05:36:37;;;;;;;30.20;15.68;;;0.60;90.40;;;;;;6231826;28;20054;-82
2022/01/13 05:39:39;;;;;;;33.70;16.02;;;0.60;90.30;;;;;;6231369;28;20050;-82
2022/01/13 05:42:41;;;;;;;34.55;15.07;;;0.60;90.30;;;;;;6231031;28;20054;-81
2022/01/13 05:45:44;;;;;;;33.05;16.40;;;0.50;90.20;;;;;;6244175;28;20133;-80
2022/01/13 05:48:46;;;;;;;29.33;14.35;;;0.50;90.30;;;;;;6237939;28;20045;-81
2022/01/13 05:51:47;;;;;;;36.72;15.77;;;0.60;90.50;;;;;;6232614;28;20068;-82
2022/01/13 05:54:49;;;;;;;31.42;16.05;;;0.60;90.50;;;;;;6234007;28;20100;-82
2022/01/13 05:57:51;;;;;;;35.63;16.02;;;0.60;90.60;;;;;;6237039;28;20045;-82
2022/01/13 06:00:54;;;;;;;33.42;15.30;;;0.50;90.40;;;;;;6255156;28;20045;-80
2022/01/13 06:03:56;;;;;;;35.90;17.92;;;0.50;90.50;;;;;;6255612;28;20491;-82
2022/01/13 06:06:58;;;;;;;37.10;16.95;;;0.50;90.40;;;;;;6255210;28;20499;-83
2022/01/13 06:10:00;;;;;;;32.45;15.75;;;0.50;90.40;;;;;;6255783;28;20052;-82
2022/01/13 06:13:01;;;;;;;32.78;15.65;;;0.50;90.70;;;;;;6256181;28;20470;-81
2022/01/13 06:16:05;;;;;;;35.28;15.88;;;0.40;90.70;;;;;;6255563;28;20075;-81
2022/01/13 06:19:07;;;;;;;37.28;15.55;;;0.40;90.80;;;;;;6255007;28;20419;-83
2022/01/13 06:22:10;;;;;;;32.08;14.95;;;0.40;90.60;;;;;;6255073;28;20123;-82
2022/01/13 06:25:14;;;;;;;32.58;14.40;;;0.40;90.40;;;;;;6254693;28;20037;-82
2022/01/13 06:28:16;;;;;;;33.58;15.05;;;0.30;90.30;;;;;;6254110;28;20061;-81
2022/01/13 06:31:19;;;;;;;31.08;14.70;;;0.30;90.30;;;;;;6257082;28;20140;-82
2022/01/13 06:34:21;;;;;;;41.58;15.25;;;0.30;90.40;;;;;;6256913;28;20108;-79
2022/01/13 06:37:23;;;;;;;33.35;16.20;;;0.30;90.40;;;;;;6255441;28;20156;-82
2022/01/13 06:40:25;;;;;;;28.80;14.27;;;0.30;90.30;;;;;;6247760;28;20117;-82
2022/01/13 06:43:27;;;;;;;34.60;14.80;;;0.30;90.30;;;;;;6215145;28;20523;-82
2022/01/13 06:46:30;;;;;;;35.42;15.15;;;0.30;90.30;;;;;;6207833;28;20435;-81
2022/01/13 06:49:35;;;;;;;32.47;15.52;;;0.30;90.30;;;;;;6223339;28;20090;-81
2022/01/13 06:52:37;;;;;;;30.90;15.48;;;0.30;90.20;;;;;;6227223;28;20050;-80
2022/01/13 06:55:38;;;;;;;34.70;15.63;;;0.30;90.30;;;;;;6214166;28;20050;-76
2022/01/13 06:58:44;;;;;;;32.00;15.88;;;0.30;90.10;;;;;;6215903;28;20480;-80
2022/01/13 07:01:48;;;;;;;30.40;16.23;;;0.30;90.10;;;;;;6203196;28;20083;-81
2022/01/13 07:04:50;;;;;;;38.38;17.55;;;0.20;90.10;;;;;;6205619;28;20177;-82
2022/01/13 07:07:52;;;;;;;57.20;23.23;;;0.30;90.20;;;;;;6204817;28;20097;-81
2022/01/13 07:10:54;;;;;;;29.92;14.73;;;0.20;90.10;;;;;;6204229;28;20070;-81
2022/01/13 07:13:55;;;;;;;36.17;15.82;;;0.20;90.20;;;;;;6203714;28;20050;-81
2022/01/13 07:16:59;;;;;;;34.35;15.55;;;0.20;90.30;;;;;;6203422;28;20046;-81
2022/01/13 07:20:01;;;;;;;35.55;15.98;;;0.20;90.40;;;;;;6203764;28;20096;-81
2022/01/13 07:23:02;;;;;;;36.13;17.17;;;0.20;90.60;;;;;;6203454;28;20046;-80
2022/01/13 07:26:04;;;;;;;45.50;19.80;;;0.30;90.80;;;;;;6203197;28;20068;-81
2022/01/13 07:29:07;;;;;;;37.80;17.52;;;0.30;90.70;;;;;;6204110;28;20578;-82
2022/01/13 07:32:10;;;;;;;32.03;12.63;;;0.30;90.60;;;;;;6203638;28;20095;-81
2022/01/13 07:35:13;;;;;;;30.95;15.05;;;0.30;90.80;;;;;;6203762;28;20057;-81
2022/01/13 07:38:14;;;;;;;36.35;15.32;;;0.40;91.00;;;;;;6204458;28;20046;-81
2022/01/13 07:41:16;;;;;;;37.85;19.15;;;0.50;90.80;;;;;;6207657;28;20050;-82
2022/01/13 07:44:18;;;;;;;40.75;19.02;;;0.50;90.70;;;;;;6207111;28;20448;-82
2022/01/13 07:47:21;;;;;;;39.60;17.88;;;0.50;90.70;;;;;;6207443;28;20468;-78
2022/01/13 07:50:23;;;;;;;40.78;18.90;;;0.50;90.70;;;;;;6202482;28;20053;-79
2022/01/13 07:53:25;;;;;;;36.60;18.70;;;0.60;90.60;;;;;;6202194;28;20046;-79
2022/01/13 07:56:28;;;;;;;39.10;16.38;;;0.60;90.60;;;;;;6201928;28;20488;-79
2022/01/13 07:59:30;;;;;;;38.47;18.02;;;0.70;90.60;;;;;;6202699;28;20177;-79
2022/01/13 08:02:34;;;;;;;44.80;18.40;;;0.70;90.50;;;;;;6203494;28;20385;-79
2022/01/13 08:05:35;;;;;;;44.42;18.58;;;0.80;90.50;;;;;;6203060;28;20058;-78
2022/01/13 08:08:38;;;;;;;53.97;20.15;;;0.90;90.40;;;;;;6162003;28;20076;-78
2022/01/13 08:11:40;;;;;;;66.25;29.48;;;0.90;90.50;;;;;;6215020;28;20135;-79
2022/01/13 08:14:42;;;;;;;47.70;24.70;;;1.00;90.50;;;;;;6224460;28;20090;-80
2022/01/13 08:21:07;;;;;;;70.28;36.83;;;1.30;90.40;;;;;;6228418;28;20091;-80
2022/01/13 08:24:09;;;;;;;61.75;31.48;;;1.50;90.40;;;;;;6228457;28;20050;-79
2022/01/13 08:27:11;;;;;;;66.30;33.20;;;1.80;90.20;;;;;;6211467;28;20038;-79
2022/01/13 08:30:13;;;;;;;54.15;24.92;;;2.00;90.10;;;;;;6219429;28;20128;-79
2022/01/13 08:33:17;;;;;;;44.63;20.15;;;2.20;89.80;;;;;;6248686;28;20046;-80
2022/01/13 08:36:19;;;;;;;34.40;17.13;;;2.50;89.50;;;;;;6251913;28;20100;-80
2022/01/13 08:39:21;;;;;;;29.38;16.27;;;2.80;88.90;;;;;;6237510;28;20136;-79
2022/01/13 08:42:24;;;;;;;33.58;16.13;;;3.10;87.90;;;;;;6227710;28;20049;-81
2022/01/13 08:45:26;;;;;;;28.20;15.25;;;3.40;87.20;;;;;;6252623;28;20501;-79
2022/01/13 08:48:29;;;;;;;39.42;15.30;;;3.60;85.80;;;;;;6236804;28;20527;-80
2022/01/13 08:51:31;;;;;;;26.42;14.85;;;3.90;84.60;;;;;;6228268;28;20042;-79
2022/01/13 08:54:32;;;;;;;27.05;14.88;;;4.30;84.50;;;;;;6228208;28;20103;-80
2022/01/13 08:57:34;;;;;;;22.05;13.40;;;4.60;82.50;;;;;;6235862;28;20049;-78
2022/01/13 09:00:37;;;;;;;26.80;13.77;;;4.90;81.60;;;;;;6227749;28;20064;-80
2022/01/13 09:03:40;;;;;;;26.65;14.13;;;5.30;80.00;;;;;;6227021;28;20136;-80
2022/01/13 09:06:42;;;;;;;27.67;13.98;;;5.50;78.90;;;;;;6226002;28;20053;-82
2022/01/13 09:09:44;;;;;;;29.45;14.38;;;5.80;77.00;;;;;;6226456;28;20125;-81
2022/01/13 09:12:46;;;;;;;22.63;12.32;;;6.10;76.00;;;;;;6211014;28;20047;-81
2022/01/13 09:15:51;;;;;;;26.13;13.45;;;6.40;74.30;;;;;;6211078;28;20050;-80
2022/01/13 09:19:11;;;;;;;22.83;12.30;;;6.60;74.00;;;;;;6204600;28;20042;-79
2022/01/13 09:22:13;;;;;;;21.27;12.40;;;6.90;73.30;;;;;;6203658;28;20120;-79
2022/01/13 09:25:15;;;;;;;20.80;12.48;;;7.10;72.60;;;;;;6202663;28;20129;-79
2022/01/13 09:28:16;;;;;;;23.25;13.10;;;7.30;72.10;;;;;;6221103;28;20054;-79
2022/01/13 09:31:18;;;;;;;23.52;11.25;;;7.60;70.00;;;;;;6227159;28;20099;-79
2022/01/13 09:34:22;;;;;;;20.60;11.63;;;7.70;69.00;;;;;;6227508;28;20069;-80
2022/01/13 09:37:24;;;;;;;23.48;11.88;;;7.80;68.90;;;;;;6225115;28;20129;-79
2022/01/13 09:40:26;;;;;;;21.83;10.75;;;8.10;69.00;;;;;;6227004;28;20050;-80
2022/01/13 09:43:29;;;;;;;21.42;11.23;;;8.40;67.90;;;;;;6220160;28;20081;-80
2022/01/13 09:46:30;;;;;;;22.58;11.07;;;8.70;66.50;;;;;;6203421;28;20503;-80
2022/01/13 09:49:34;;;;;;;22.77;11.18;;;9.00;65.70;;;;;;6203003;28;20126;-80
2022/01/13 09:52:37;;;;;;;17.25;9.93;;;9.20;65.00;;;;;;6201443;28;20121;-80
2022/01/13 09:55:39;;;;;;;16.63;10.32;;;9.50;63.80;;;;;;6201268;28;20054;-80
2022/01/13 09:58:43;;;;;;;17.88;10.60;;;9.70;62.90;;;;;;6201516;28;20069;-78
2022/01/13 10:01:45;;;;;;;22.27;11.45;;;10.00;61.60;;;;;;6201212;28;20046;-78
2022/01/13 10:04:50;;;;;;;15.95;8.50;;;10.00;60.70;;;;;;6202252;28;20182;-78
2022/01/13 10:07:55;;;;;;;18.20;10.07;;;10.10;59.80;;;;;;6201356;28;20435;-79
2022/01/13 10:10:56;;;;;;;15.90;10.25;;;10.10;60.30;;;;;;6219498;28;20053;-80
2022/01/13 10:14:03;;;;;;;23.35;10.85;;;10.20;59.70;;;;;;6228219;28;20044;-81
2022/01/13 10:17:07;;;;;;;19.27;9.57;;;10.20;59.60;;;;;;6200990;28;20093;-79
2022/01/13 10:20:13;;;;;;;16.02;9.23;;;10.40;59.20;;;;;;6204047;28;20054;-79
2022/01/13 10:23:15;;;;;;;15.88;9.63;;;10.60;58.80;;;;;;6206395;28;20134;-78
2022/01/13 10:26:17;;;;;;;17.70;9.38;;;10.90;57.80;;;;;;6222861;28;20056;-79
2022/01/13 10:29:19;;;;;;;14.75;7.97;;;11.00;56.60;;;;;;6219561;28;20173;-80
2022/01/13 10:32:22;;;;;;;14.48;8.63;;;10.70;56.70;;;;;;6200072;28;20048;-79
2022/01/13 10:35:25;;;;;;;14.13;6.78;;;10.30;57.30;;;;;;6200047;28;20188;-80
2022/01/13 10:38:28;;;;;;;19.25;8.15;;;9.90;58.40;;;;;;6199776;28;20053;-79
2022/01/13 10:41:37;;;;;;;10.95;6.47;;;9.90;59.60;;;;;;6207169;28;20124;-80
2022/01/13 10:44:39;;;;;;;14.10;7.72;;;9.80;58.90;;;;;;6215768;28;20053;-79
2022/01/13 10:47:41;;;;;;;11.73;7.68;;;9.70;60.00;;;;;;6226284;28;20129;-78
2022/01/13 10:50:47;;;;;;;12.52;7.30;;;9.70;59.40;;;;;;6224452;28;20049;-79
2022/01/13 10:53:50;;;;;;;13.13;7.47;;;10.10;59.90;;;;;;6225123;28;20065;-80
2022/01/13 10:57:23;;;;;;;16.05;9.73;;;10.40;59.20;;;;;;6225285;28;20154;-80
2022/01/13 11:00:26;;;;;;;12.02;7.32;;;10.60;58.30;;;;;;6225250;28;20060;-80
2022/01/13 11:03:29;;;;;;;12.23;7.07;;;10.70;58.10;;;;;;6225944;28;20056;-81
2022/01/13 11:06:32;;;;;;;14.60;7.40;;;11.00;57.90;;;;;;6224688;28;20053;-80
2022/01/13 11:09:35;;;;;;;18.20;8.27;;;11.50;57.50;;;;;;6225327;28;20042;-80
2022/01/13 11:12:41;;;;;;;13.13;6.70;;;11.90;55.90;;;;;;6226602;28;20460;-80
2022/01/13 11:15:45;;;;;;;258.05;100.90;;;12.10;54.80;;;;;;6207552;28;20129;-80
2022/01/13 11:18:47;;;;;;;26.13;19.52;;;12.20;56.00;;;;;;6200988;28;20042;-81
2022/01/13 11:21:51;;;;;;;21.45;13.43;;;12.50;55.90;;;;;;6200649;28;20054;-81
2022/01/13 11:24:53;;;;;;;13.20;7.38;;;12.90;54.70;;;;;;6200113;28;20125;-81
2022/01/13 11:27:57;;;;;;;13.00;6.90;;;13.20;52.70;;;;;;6201953;28;20463;-80
2022/01/13 11:31:00;;;;;;;13.95;6.57;;;13.20;52.10;;;;;;6211863;28;20051;-81
2022/01/13 11:34:02;;;;;;;13.50;7.50;;;13.30;52.60;;;;;;6203353;28;20049;-80
2022/01/13 11:37:06;;;;;;;11.68;6.60;;;13.30;51.00;;;;;;6204961;28;20526;-80
2022/01/13 11:40:29;;;;;;;12.52;5.82;;;13.20;51.70;;;;;;6204829;28;20165;-80
2022/01/13 11:43:37;;;;;;;9.23;6.00;;;13.20;51.40;;;;;;6221309;28;20038;-79
2022/01/13 11:46:45;;;;;;;10.68;5.05;;;13.40;50.80;;;;;;6228652;28;20053;-79
2022/01/13 11:49:58;;;;;;;12.00;6.10;;;13.40;50.30;;;;;;6228371;28;20132;-80
2022/01/13 11:53:01;;;;;;;8.23;4.38;;;13.10;50.90;;;;;;6228589;28;20065;-81
2022/01/13 11:56:05;;;;;;;9.15;5.72;;;13.00;50.90;;;;;;6228858;28;20074;-80
2022/01/13 11:59:09;;;;;;;11.55;5.50;;;12.80;52.20;;;;;;6227741;28;20046;-80
2022/01/13 12:02:25;;;;;;;8.63;5.68;;;12.80;51.40;;;;;;6227930;28;20065;-80
2022/01/13 12:05:29;;;;;;;11.23;5.80;;;12.20;52.10;;;;;;6227178;28;20120;-80
2022/01/13 12:08:45;;;;;;;11.75;7.53;;;11.80;53.40;;;;;;6227192;28;20061;-80
2022/01/13 12:11:50;;;;;;;12.90;6.88;;;11.60;54.10;;;;;;6227717;28;20042;-80
2022/01/13 12:14:52;;;;;;;18.13;6.78;;;11.60;54.70;;;;;;6219950;28;20297;-80
2022/01/13 12:17:56;;;;;;;9.70;6.00;;;11.60;56.60;;;;;;6226847;28;20434;-79
2022/01/13 12:21:20;;;;;;;10.32;5.20;;;11.90;54.50;;;;;;6226400;28;20049;-80
2022/01/13 12:24:45;;;;;;;13.07;7.05;;;11.90;56.10;;;;;;6227302;28;20121;-82
2022/01/13 12:27:50;;;;;;;10.73;5.40;;;12.50;53.80;;;;;;6229555;28;20058;-81
2022/01/13 12:30:51;;;;;;;10.63;5.80;;;12.60;53.90;;;;;;6233086;28;20499;-81
2022/01/13 12:33:53;;;;;;;10.38;6.30;;;12.70;52.80;;;;;;6237834;28;20068;-81
2022/01/13 12:36:55;;;;;;;10.73;6.28;;;12.70;54.10;;;;;;6229406;28;20488;-81
2022/01/13 12:40:02;;;;;;;9.07;5.15;;;13.20;53.40;;;;;;6230272;28;20049;-82
2022/01/13 12:43:33;;;;;;;12.63;4.95;;;13.50;51.80;;;;;;6248006;28;20048;-83
2022/01/13 12:46:36;;;;;;;8.90;4.55;;;13.50;50.80;;;;;;6247730;28;20042;-84
2022/01/13 12:49:38;;;;;;;8.65;5.78;;;13.20;50.90;;;;;;6240906;28;20045;-82
2022/01/13 12:52:40;;;;;;;8.30;5.38;;;13.10;51.30;;;;;;6256989;28;20419;-82
2022/01/13 12:55:46;;;;;;;7.13;4.65;;;12.80;52.00;;;;;;6246827;28;20125;-81
2022/01/13 12:58:49;;;;;;;7.82;4.65;;;12.80;52.20;;;;;;6215704;28;20070;-84
2022/01/13 13:01:51;;;;;;;7.20;4.20;;;12.90;52.10;;;;;;6245961;28;20071;-83
2022/01/13 13:04:53;;;;;;;8.27;4.57;;;12.70;51.40;;;;;;6257324;28;20067;-83
2022/01/13 13:07:55;;;;;;;9.25;4.88;;;12.50;52.70;;;;;;6257740;28;20135;-83
2022/01/13 13:11:01;;;;;;;9.55;5.28;;;12.50;53.00;;;;;;6245950;28;20049;-82
2022/01/13 13:14:03;;;;;;;11.60;6.25;;;12.50;53.00;;;;;;6235525;28;20408;-83
2022/01/13 13:17:05;;;;;;;17.88;6.68;;;12.50;52.70;;;;;;6207790;28;20042;-81
2022/01/13 13:20:22;;;;;;;9.95;4.72;;;12.50;52.30;;;;;;6211140;28;20087;-83
2022/01/13 13:23:27;;;;;;;12.25;5.07;;;12.10;53.00;;;;;;6209319;28;20046;-84
2022/01/13 13:26:30;;;;;;;10.00;5.97;;;12.20;53.60;;;;;;6208634;28;20058;-84
2022/01/13 13:29:32;;;;;;;10.35;5.10;;;12.40;53.70;;;;;;6208208;28;20046;-83
2022/01/13 13:32:34;;;;;;;9.15;4.65;;;12.50;52.90;;;;;;6214462;28;20125;-83
2022/01/13 13:35:35;;;;;;;8.27;5.43;;;12.30;53.20;;;;;;6206539;28;20616;-82
2022/01/13 13:38:59;;;;;;;13.35;5.03;;;12.30;53.40;;;;;;6205682;28;20057;-82
2022/01/13 13:42:02;;;;;;;9.52;5.05;;;12.00;53.40;;;;;;6222191;28;20510;-84
2022/01/13 13:45:10;;;;;;;10.50;4.82;;;11.90;54.40;;;;;;6210044;28;20038;-83
2022/01/13 13:48:12;;;;;;;8.52;4.60;;;11.90;54.20;;;;;;6208501;28;20047;-83
2022/01/13 13:51:15;;;;;;;10.32;5.13;;;11.70;54.20;;;;;;6209832;28;20178;-84
2022/01/13 13:54:18;;;;;;;8.75;4.53;;;11.40;54.90;;;;;;6209145;28;20073;-83
2022/01/13 13:57:24;;;;;;;8.68;5.07;;;11.20;55.70;;;;;;6245869;28;20068;-82
2022/01/13 14:00:27;;;;;;;8.80;5.40;;;11.10;56.60;;;;;;6255718;28;20046;-82
2022/01/13 14:03:40;;;;;;;10.80;4.97;;;11.10;56.30;;;;;;6242887;28;20050;-83
2022/01/13 14:06:43;;;;;;;12.73;5.68;;;11.00;56.40;;;;;;6258135;28;20049;-84
2022/01/13 14:09:45;;;;;;;9.38;5.75;;;10.80;57.50;;;;;;6257394;28;20045;-83
2022/01/13 14:12:53;;;;;;;8.20;3.85;;;10.70;57.20;;;;;;6245094;28;20055;-82
2022/01/13 14:15:54;;;;;;;;;;;10.70;57.60;;;;;;6211228;28;20496;-81
2022/01/13 14:19:05;;;;;;;10.07;6.03;;;10.70;57.90;;;;;;6220394;28;19968;-84
2022/01/13 14:22:06;;;;;;;8.38;4.30;;;10.90;58.00;;;;;;6231821;28;20049;-83
2022/01/13 14:25:13;;;;;;;8.52;5.15;;;10.80;57.20;;;;;;6229483;28;20048;-82
2022/01/13 14:28:26;;;;;;;10.38;4.53;;;11.00;58.10;;;;;;6236908;28;20108;-81
2022/01/13 14:31:36;;;;;;;10.15;5.30;;;11.10;56.90;;;;;;6230563;28;20141;-83
2022/01/13 14:34:42;;;;;;;10.23;4.75;;;11.20;56.90;;;;;;6213998;28;20053;-83
2022/01/13 14:37:55;;;;;;;8.80;4.88;;;11.30;56.70;;;;;;6208382;28;20058;-83
2022/01/13 14:40:57;;;;;;;7.45;4.72;;;11.30;56.80;;;;;;6209695;28;20049;-82
2022/01/13 14:44:02;;;;;;;6.90;4.57;;;11.40;57.10;;;;;;6222641;28;20418;-84
2022/01/13 14:47:05;;;;;;;9.07;4.50;;;11.50;56.20;;;;;;6229900;28;20050;-84
2022/01/13 14:50:08;;;;;;;7.68;4.82;;;11.50;56.10;;;;;;6223963;28;20047;-84
2022/01/13 14:53:10;;;;;;;14.05;9.05;;;11.30;56.20;;;;;;6232719;28;20111;-83
2022/01/13 14:56:15;;;;;;;11.60;6.15;;;11.30;56.60;;;;;;6231222;28;20643;-82
2022/01/13 14:59:18;;;;;;;10.18;5.57;;;11.50;56.50;;;;;;6230645;28;20542;-81
2022/01/13 15:02:20;;;;;;;11.93;5.97;;;11.40;56.30;;;;;;6230202;28;20052;-84
2022/01/13 15:05:22;;;;;;;11.38;5.80;;;11.50;56.30;;;;;;6230037;28;20058;-84
2022/01/13 15:08:25;;;;;;;10.93;5.32;;;11.50;56.30;;;;;;6231909;28;20551;-83
2022/01/13 15:11:27;;;;;;;8.90;5.45;;;11.50;56.20;;;;;;6235561;28;20065;-83
2022/01/13 15:14:30;;;;;;;22.35;7.40;;;11.30;56.10;;;;;;6226211;28;20508;-81
2022/01/13 15:17:34;;;;;;;11.90;7.10;;;11.10;56.50;;;;;;6211231;28;20050;-82
2022/01/13 15:20:35;;;;;;;12.07;6.50;;;10.70;57.70;;;;;;6211103;28;20465;-82
2022/01/13 15:23:38;;;;;;;13.88;6.35;;;10.40;57.90;;;;;;6211130;28;20577;-83
2022/01/13 15:26:40;;;;;;;11.48;5.93;;;10.00;58.90;;;;;;6210072;28;20053;-83
2022/01/13 15:29:43;;;;;;;13.02;6.72;;;9.60;59.80;;;;;;6202331;28;20089;-82
2022/01/13 15:32:44;;;;;;;11.50;6.30;;;9.20;61.10;;;;;;6211999;28;20476;-82
2022/01/13 15:35:47;;;;;;;12.35;6.32;;;9.00;62.10;;;;;;6213425;28;20050;-83
2022/01/13 15:38:49;;;;;;;31.90;17.25;;;8.80;62.70;;;;;;6211161;28;20106;-82
2022/01/13 15:41:51;;;;;;;15.90;7.57;;;8.60;63.90;;;;;;6217836;28;20060;-83
2022/01/13 15:44:54;;;;;;;13.40;6.93;;;8.40;64.80;;;;;;6221120;28;20097;-82
2022/01/13 15:47:57;;;;;;;14.43;7.60;;;8.20;65.90;;;;;;6235612;28;20054;-82
2022/01/13 15:50:59;;;;;;;15.38;7.88;;;7.90;66.70;;;;;;6234666;28;20052;-83
2022/01/13 15:54:01;;;;;;;13.65;8.32;;;7.70;67.80;;;;;;6234867;28;20056;-82
2022/01/13 15:57:03;;;;;;;18.38;8.45;;;7.40;69.10;;;;;;6234820;28;20061;-83